Terminal Aerodrome Forecast
Issued by NWS

Home | Current Version | Previous Version | Graphics & Text | Print | Product List | Glossary On
Versions: 1 2 3 4 5 6 7 8 9 10 11 12 13 14 15 16 17 18 19 20 21 22 23 24 25 26
238
FTUS45 KGGW 272019 AAA
TAFOLF
TAF AMD
KOLF 272019Z 2720/2818 05012KT P6SM VCSH SCT015 BKN035
      TEMPO 2720/2723 06013KT 4SM -RA BR OVC009
     FM272300 07010KT P6SM VCSH OVC020
     FM280300 08011KT P6SM OVC040=

USA.gov is the U.S. government's official web portal to all federal, state and local government web resources and services.